Time;durP1;ratioP1;P1;durP2;ratioP2;P2;SDS_P1;SDS_P2;PMS_P1;PMS_P2;Temp;Humidity;BMP_temperature;BMP_pressure;BME280_temperature;BME280_humidity;BME280_pressure;Samples;Min_cycle;Max_cycle;Signal;HPM_P1;HPM_P2
2024/01/11 00:00:19;;;;;;;33.17;17.17;;;;;;;;;;4946614;29;20408;-87
2024/01/11 00:02:45;;;;;;;26.73;17.00;;;;;;;;;;4949144;29;20903;-87
2024/01/11 00:05:11;;;;;;;30.93;18.60;;;;;;;;;;4947813;29;20524;-85
2024/01/11 00:07:37;;;;;;;33.07;18.33;;;;;;;;;;4944224;29;20413;-87
2024/01/11 00:10:03;;;;;;;32.97;17.40;;;;;;;;;;4941872;29;20465;-87
2024/01/11 00:12:29;;;;;;;26.30;17.23;;;;;;;;;;4961269;28;20418;-85
2024/01/11 00:14:55;;;;;;;30.80;17.80;;;;;;;;;;4949727;29;20948;-88
2024/01/11 00:17:21;;;;;;;36.67;16.90;;;;;;;;;;4962252;28;20565;-88
2024/01/11 00:19:48;;;;;;;38.60;20.53;;;;;;;;;;4950191;29;20881;-87
2024/01/11 00:22:14;;;;;;;33.10;18.70;;;;;;;;;;4948905;28;20424;-88
2024/01/11 00:24:41;;;;;;;30.37;18.87;;;;;;;;;;4946020;29;20424;-85
2024/01/11 00:27:07;;;;;;;33.53;17.50;;;;;;;;;;4944011;28;20410;-87
2024/01/11 00:29:33;;;;;;;38.70;19.70;;;;;;;;;;4969499;28;20511;-86
2024/01/11 00:31:59;;;;;;;28.40;16.60;;;;;;;;;;4955259;29;20424;-86
2024/01/11 00:34:25;;;;;;;42.37;19.33;;;;;;;;;;4955409;29;20499;-82
2024/01/11 00:36:50;;;;;;;30.87;17.27;;;;;;;;;;4955259;29;20509;-84
2024/01/11 00:39:16;;;;;;;34.03;17.47;;;;;;;;;;4950456;28;20488;-83
2024/01/11 00:41:43;;;;;;;33.60;18.67;;;;;;;;;;4935042;29;20805;-83
2024/01/11 00:44:09;;;;;;;33.57;18.47;;;;;;;;;;4935893;29;20413;-83
2024/01/11 00:46:35;;;;;;;32.53;19.50;;;;;;;;;;4935954;29;20425;-84
2024/01/11 00:49:01;;;;;;;30.70;20.27;;;;;;;;;;4913409;28;20971;-84
2024/01/11 00:51:27;;;;;;;36.40;20.87;;;;;;;;;;4919024;29;20485;-84
2024/01/11 00:53:53;;;;;;;33.13;18.07;;;;;;;;;;4935766;29;20413;-84
2024/01/11 00:56:19;;;;;;;34.77;18.03;;;;;;;;;;4950588;29;20790;-84
2024/01/11 00:58:48;;;;;;;36.73;19.27;;;;;;;;;;4935439;29;20425;-84
2024/01/11 01:01:14;;;;;;;33.20;18.83;;;;;;;;;;4935727;29;20433;-84
2024/01/11 01:03:40;;;;;;;34.53;21.93;;;;;;;;;;4950540;29;20422;-84
2024/01/11 01:06:06;;;;;;;39.30;21.53;;;;;;;;;;4935740;29;20942;-85
2024/01/11 01:08:32;;;;;;;40.33;20.47;;;;;;;;;;4935699;29;20418;-84
2024/01/11 01:10:58;;;;;;;45.70;24.40;;;;;;;;;;4935696;29;21016;-84
2024/01/11 01:13:24;;;;;;;41.13;22.40;;;;;;;;;;4949857;29;20482;-85
2024/01/11 01:15:50;;;;;;;39.10;22.47;;;;;;;;;;4935107;29;20432;-83
2024/01/11 01:18:16;;;;;;;42.00;22.97;;;;;;;;;;4935534;29;20425;-84
2024/01/11 01:20:42;;;;;;;47.07;22.63;;;;;;;;;;4935684;29;20939;-83
2024/01/11 01:23:08;;;;;;;42.77;22.80;;;;;;;;;;4935668;29;20516;-85
2024/01/11 01:25:33;;;;;;;43.63;22.03;;;;;;;;;;4935620;29;20453;-85
2024/01/11 01:28:00;;;;;;;40.97;21.17;;;;;;;;;;4935018;29;20410;-84
2024/01/11 01:30:26;;;;;;;36.33;20.23;;;;;;;;;;4950214;29;20487;-84
2024/01/11 01:32:52;;;;;;;42.20;22.30;;;;;;;;;;4950221;29;20420;-83
2024/01/11 01:35:18;;;;;;;39.13;21.30;;;;;;;;;;4950258;29;20517;-84
2024/01/11 01:37:44;;;;;;;39.13;21.00;;;;;;;;;;4935346;29;20489;-84
2024/01/11 01:40:10;;;;;;;34.73;20.90;;;;;;;;;;4936836;29;20513;-84
2024/01/11 01:42:36;;;;;;;40.30;20.87;;;;;;;;;;4937895;29;20784;-84
2024/01/11 01:45:02;;;;;;;36.37;20.10;;;;;;;;;;4940135;29;20985;-83
2024/01/11 01:47:28;;;;;;;33.77;18.10;;;;;;;;;;4958320;28;20765;-84
2024/01/11 01:49:55;;;;;;;35.43;19.57;;;;;;;;;;4966220;28;21053;-84
2024/01/11 01:52:21;;;;;;;37.20;21.67;;;;;;;;;;4958565;28;20449;-83
2024/01/11 01:54:49;;;;;;;35.50;21.07;;;;;;;;;;4937207;29;20546;-83
2024/01/11 01:57:19;;;;;;;37.87;20.80;;;;;;;;;;4938001;29;20516;-83
2024/01/11 01:59:46;;;;;;;38.57;20.83;;;;;;;;;;4953357;28;20797;-83
2024/01/11 02:02:12;;;;;;;37.50;22.53;;;;;;;;;;4938561;29;20914;-84
2024/01/11 02:04:38;;;;;;;33.70;20.23;;;;;;;;;;4938228;29;20417;-84
2024/01/11 02:07:11;;;;;;;37.57;22.87;;;;;;;;;;4937155;29;20923;-84
2024/01/11 02:09:37;;;;;;;37.67;20.87;;;;;;;;;;4938149;29;20429;-84
2024/01/11 02:12:04;;;;;;;37.40;20.47;;;;;;;;;;4947182;29;20506;-85
2024/01/11 02:14:30;;;;;;;39.40;22.23;;;;;;;;;;4957305;29;20440;-84
2024/01/11 02:16:56;;;;;;;39.33;23.60;;;;;;;;;;4957042;28;20420;-84
2024/01/11 02:19:37;;;;;;;37.20;22.27;;;;;;;;;;4936776;29;20436;-82
2024/01/11 02:22:07;;;;;;;36.07;22.40;;;;;;;;;;4937684;29;20436;-82
2024/01/11 02:24:33;;;;;;;36.53;19.87;;;;;;;;;;4938229;29;20426;-82
2024/01/11 02:26:59;;;;;;;40.10;24.00;;;;;;;;;;4937781;29;20917;-81
2024/01/11 02:29:26;;;;;;;39.87;23.87;;;;;;;;;;4936691;29;20424;-82
2024/01/11 02:31:52;;;;;;;40.23;23.97;;;;;;;;;;4937770;29;20475;-84
2024/01/11 02:34:18;;;;;;;40.87;23.53;;;;;;;;;;4936373;29;20488;-82
2024/01/11 02:36:44;;;;;;;47.00;24.70;;;;;;;;;;4936764;29;20429;-82
2024/01/11 02:39:10;;;;;;;43.90;24.30;;;;;;;;;;4936690;29;20977;-81
2024/01/11 02:41:37;;;;;;;43.97;22.93;;;;;;;;;;4936114;29;20441;-81
2024/01/11 02:44:03;;;;;;;47.63;24.63;;;;;;;;;;4936599;29;20434;-82
2024/01/11 02:46:30;;;;;;;45.03;23.57;;;;;;;;;;4936594;29;20429;-82
2024/01/11 02:48:56;;;;;;;41.30;24.40;;;;;;;;;;4937635;29;20484;-82
2024/01/11 02:51:22;;;;;;;38.00;23.33;;;;;;;;;;4936902;29;21034;-82
2024/01/11 02:53:48;;;;;;;36.87;22.60;;;;;;;;;;4936382;29;20423;-82
2024/01/11 02:56:14;;;;;;;40.60;22.13;;;;;;;;;;4937599;29;20893;-82
2024/01/11 02:58:40;;;;;;;38.10;22.03;;;;;;;;;;4936074;29;20425;-82
2024/01/11 03:01:06;;;;;;;38.30;21.23;;;;;;;;;;4936235;29;20529;-82
2024/01/11 03:03:32;;;;;;;36.43;22.27;;;;;;;;;;4937110;29;20512;-82
2024/01/11 03:05:58;;;;;;;31.53;18.10;;;;;;;;;;4937469;29;20426;-82
2024/01/11 03:08:24;;;;;;;30.53;16.97;;;;;;;;;;4937407;29;20413;-83
2024/01/11 03:10:50;;;;;;;27.73;14.27;;;;;;;;;;4936038;29;20501;-82
2024/01/11 03:13:16;;;;;;;27.60;14.87;;;;;;;;;;4936896;29;20895;-83
2024/01/11 03:15:41;;;;;;;26.37;14.47;;;;;;;;;;4937367;29;20517;-83
2024/01/11 03:18:10;;;;;;;24.23;13.00;;;;;;;;;;4937216;29;20418;-84
2024/01/11 03:20:36;;;;;;;28.03;14.80;;;;;;;;;;4935749;29;20422;-84
2024/01/11 03:23:02;;;;;;;27.93;13.60;;;;;;;;;;4937167;29;20854;-84
2024/01/11 03:25:29;;;;;;;28.57;15.57;;;;;;;;;;4936975;29;20441;-84
2024/01/11 03:27:55;;;;;;;34.63;16.80;;;;;;;;;;4936366;29;20430;-84
2024/01/11 03:30:21;;;;;;;36.13;15.43;;;;;;;;;;4936978;29;20478;-82
2024/01/11 03:32:47;;;;;;;29.67;13.87;;;;;;;;;;4937145;29;20441;-82
2024/01/11 03:35:13;;;;;;;31.93;17.10;;;;;;;;;;4936997;29;20425;-87
2024/01/11 03:37:39;;;;;;;27.40;15.90;;;;;;;;;;4936828;29;20411;-84
2024/01/11 03:40:05;;;;;;;32.23;18.13;;;;;;;;;;4936887;29;20476;-82
2024/01/11 03:42:31;;;;;;;26.87;14.47;;;;;;;;;;4936539;29;20924;-83
2024/01/11 03:44:57;;;;;;;31.57;16.97;;;;;;;;;;4951534;29;20426;-83
2024/01/11 03:47:23;;;;;;;35.90;17.90;;;;;;;;;;4936606;29;20419;-83
2024/01/11 03:49:49;;;;;;;31.50;17.07;;;;;;;;;;4936408;29;20571;-80
2024/01/11 03:52:15;;;;;;;38.17;19.77;;;;;;;;;;4951303;29;20435;-83
2024/01/11 03:54:41;;;;;;;36.13;16.30;;;;;;;;;;4951171;29;20429;-83
2024/01/11 03:57:07;;;;;;;35.63;19.57;;;;;;;;;;4936312;29;20509;-83
2024/01/11 03:59:35;;;;;;;34.00;18.00;;;;;;;;;;4936422;29;20989;-83
2024/01/11 04:02:01;;;;;;;31.93;17.20;;;;;;;;;;4936227;29;20433;-85
2024/01/11 04:04:27;;;;;;;34.67;18.00;;;;;;;;;;4935634;29;20417;-86
2024/01/11 04:06:53;;;;;;;30.57;15.97;;;;;;;;;;4935272;29;20432;-84
2024/01/11 04:09:20;;;;;;;37.13;19.30;;;;;;;;;;4936236;29;20409;-84
2024/01/11 04:11:46;;;;;;;35.33;16.90;;;;;;;;;;4936003;29;20476;-85
2024/01/11 04:14:12;;;;;;;35.30;17.90;;;;;;;;;;4936267;29;20452;-85
2024/01/11 04:16:41;;;;;;;37.70;18.50;;;;;;;;;;4936329;29;20435;-83
2024/01/11 04:19:07;;;;;;;33.97;16.50;;;;;;;;;;4934469;29;20433;-82
2024/01/11 04:21:33;;;;;;;32.83;17.73;;;;;;;;;;4935901;29;20428;-82
2024/01/11 04:23:59;;;;;;;34.23;18.57;;;;;;;;;;4942010;29;20432;-82
2024/01/11 04:26:26;;;;;;;33.83;17.90;;;;;;;;;;4935914;29;20434;-83
2024/01/11 04:28:52;;;;;;;36.17;19.40;;;;;;;;;;4936036;29;20919;-82
2024/01/11 04:31:18;;;;;;;30.50;16.57;;;;;;;;;;4935830;29;20477;-82
2024/01/11 04:33:45;;;;;;;34.27;17.13;;;;;;;;;;4950218;29;20878;-83
2024/01/11 04:36:11;;;;;;;38.80;21.40;;;;;;;;;;4935953;29;20919;-82
2024/01/11 04:38:37;;;;;;;38.40;19.60;;;;;;;;;;4935914;29;20414;-82
2024/01/11 04:41:07;;;;;;;41.77;21.63;;;;;;;;;;4935323;29;20433;-82
2024/01/11 04:43:33;;;;;;;35.70;19.20;;;;;;;;;;4935753;29;20434;-82
2024/01/11 04:45:59;;;;;;;45.43;19.63;;;;;;;;;;4935547;29;20424;-83
2024/01/11 04:48:25;;;;;;;39.07;19.80;;;;;;;;;;4935622;29;20762;-81
2024/01/11 04:50:51;;;;;;;43.30;21.37;;;;;;;;;;4935355;29;21052;-82
2024/01/11 04:53:17;;;;;;;39.03;19.30;;;;;;;;;;4935543;29;20517;-83
2024/01/11 04:55:43;;;;;;;36.37;20.33;;;;;;;;;;4935692;29;20424;-82
2024/01/11 04:58:09;;;;;;;45.90;20.60;;;;;;;;;;4934027;29;20418;-81
2024/01/11 05:00:41;;;;;;;43.30;22.27;;;;;;;;;;4935572;29;20425;-82
2024/01/11 05:03:06;;;;;;;43.80;22.77;;;;;;;;;;4935463;29;20489;-83
2024/01/11 05:05:32;;;;;;;44.73;20.80;;;;;;;;;;4950121;29;20422;-81
2024/01/11 05:07:58;;;;;;;47.13;25.70;;;;;;;;;;4950211;28;20463;-82
2024/01/11 05:10:24;;;;;;;48.17;23.03;;;;;;;;;;4934938;29;20556;-82
2024/01/11 05:12:50;;;;;;;42.30;21.00;;;;;;;;;;4935038;29;20917;-84
2024/01/11 05:15:16;;;;;;;46.10;23.50;;;;;;;;;;4939473;29;20405;-83
2024/01/11 05:17:43;;;;;;;46.70;21.27;;;;;;;;;;4941788;29;20454;-84
2024/01/11 05:20:09;;;;;;;39.43;19.57;;;;;;;;;;4941977;29;20420;-84
2024/01/11 05:22:35;;;;;;;40.50;21.97;;;;;;;;;;4941859;29;20422;-84
2024/01/11 05:25:01;;;;;;;49.23;22.63;;;;;;;;;;4941776;29;20430;-85
2024/01/11 05:27:27;;;;;;;53.63;25.77;;;;;;;;;;4941296;29;20780;-81
2024/01/11 05:29:53;;;;;;;42.70;22.70;;;;;;;;;;4941614;29;20421;-81
2024/01/11 05:32:19;;;;;;;47.60;23.10;;;;;;;;;;4933372;28;20434;-83
2024/01/11 05:34:45;;;;;;;55.60;25.50;;;;;;;;;;4911351;29;20500;-84
2024/01/11 05:37:11;;;;;;;50.87;25.93;;;;;;;;;;4941608;29;20465;-82
2024/01/11 05:39:37;;;;;;;50.53;27.40;;;;;;;;;;4941342;29;20425;-85
2024/01/11 05:42:03;;;;;;;59.23;28.33;;;;;;;;;;4955795;28;21183;-82
2024/01/11 05:44:29;;;;;;;55.73;25.17;;;;;;;;;;4941563;29;20419;-82
2024/01/11 05:46:54;;;;;;;53.57;27.20;;;;;;;;;;4941646;29;20481;-82
2024/01/11 05:49:21;;;;;;;55.00;26.93;;;;;;;;;;4941219;29;20465;-83
2024/01/11 05:51:47;;;;;;;60.23;27.70;;;;;;;;;;4941382;29;20559;-81
2024/01/11 05:54:33;;;;;;;59.63;30.27;;;;;;;;;;4941529;29;20495;-85
2024/01/11 05:57:08;;;;;;;57.90;30.13;;;;;;;;;;4941367;29;20902;-87
2024/01/11 05:59:34;;;;;;;57.20;27.63;;;;;;;;;;4941393;29;20413;-84
2024/01/11 06:02:01;;;;;;;61.50;29.73;;;;;;;;;;4956180;28;21089;-84
2024/01/11 06:04:27;;;;;;;53.10;24.33;;;;;;;;;;4941141;29;20413;-84
2024/01/11 06:06:53;;;;;;;49.70;24.90;;;;;;;;;;4941452;29;20960;-87
2024/01/11 06:09:19;;;;;;;51.57;24.20;;;;;;;;;;4941994;29;20420;-88
2024/01/11 06:11:45;;;;;;;55.73;27.70;;;;;;;;;;4941775;29;20477;-89
2024/01/11 06:14:11;;;;;;;57.83;27.47;;;;;;;;;;4941921;29;20496;-83
2024/01/11 06:16:37;;;;;;;56.90;28.97;;;;;;;;;;4941282;29;20421;-82
2024/01/11 06:19:02;;;;;;;56.43;30.20;;;;;;;;;;4941132;29;20414;-83
2024/01/11 06:21:28;;;;;;;54.40;27.63;;;;;;;;;;4941198;29;20780;-83
2024/01/11 06:23:54;;;;;;;56.77;27.07;;;;;;;;;;4941120;29;20425;-83
2024/01/11 06:26:20;;;;;;;45.57;26.10;;;;;;;;;;4936531;29;20458;-82
2024/01/11 06:28:46;;;;;;;62.93;28.97;;;;;;;;;;4936997;29;20414;-83
2024/01/11 06:31:12;;;;;;;54.23;28.40;;;;;;;;;;4937968;29;20971;-84
2024/01/11 06:33:38;;;;;;;55.43;28.73;;;;;;;;;;4898183;28;20442;-83
2024/01/11 06:36:10;;;;;;;64.57;28.93;;;;;;;;;;4937308;29;20430;-86
2024/01/11 06:38:36;;;;;;;48.13;25.10;;;;;;;;;;4938202;29;20417;-81
2024/01/11 06:41:02;;;;;;;49.70;25.73;;;;;;;;;;4937375;29;20434;-84
2024/01/11 06:43:28;;;;;;;53.00;29.20;;;;;;;;;;4952902;29;20437;-86
2024/01/11 06:45:53;;;;;;;50.30;25.67;;;;;;;;;;4938182;29;20932;-80
2024/01/11 06:48:19;;;;;;;55.10;26.50;;;;;;;;;;4937726;29;20435;-84
2024/01/11 06:50:46;;;;;;;54.87;26.53;;;;;;;;;;4937739;29;20485;-83
2024/01/11 06:53:12;;;;;;;50.90;25.00;;;;;;;;;;4937961;29;20422;-81
2024/01/11 06:55:40;;;;;;;51.40;25.40;;;;;;;;;;4952662;29;20439;-83
2024/01/11 06:58:06;;;;;;;47.43;25.23;;;;;;;;;;4937269;29;20437;-80
2024/01/11 07:00:32;;;;;;;47.20;24.33;;;;;;;;;;4938365;29;20426;-82
2024/01/11 07:02:58;;;;;;;47.77;23.40;;;;;;;;;;4952670;28;20421;-81
2024/01/11 07:05:24;;;;;;;40.23;21.13;;;;;;;;;;4956784;29;20420;-81
2024/01/11 07:07:50;;;;;;;40.33;21.40;;;;;;;;;;4956474;28;20880;-81
2024/01/11 07:10:16;;;;;;;37.50;19.87;;;;;;;;;;4956714;29;20513;-83
2024/01/11 07:12:47;;;;;;;36.60;20.10;;;;;;;;;;4956522;28;20418;-82
2024/01/11 07:15:14;;;;;;;46.63;22.53;;;;;;;;;;4956810;28;20431;-81
2024/01/11 07:17:40;;;;;;;38.50;18.57;;;;;;;;;;4956804;28;20762;-83
2024/01/11 07:20:07;;;;;;;38.27;19.13;;;;;;;;;;4956834;29;20417;-84
2024/01/11 07:22:33;;;;;;;35.93;19.80;;;;;;;;;;4956744;28;20413;-83
2024/01/11 07:24:59;;;;;;;35.07;17.40;;;;;;;;;;4956632;28;20422;-81
2024/01/11 07:27:25;;;;;;;30.23;14.80;;;;;;;;;;4953584;29;20413;-84
2024/01/11 07:30:19;;;;;;;32.90;15.97;;;;;;;;;;4956438;28;20421;-84
2024/01/11 07:33:05;;;;;;;36.60;17.40;;;;;;;;;;4920106;29;20453;-85
2024/01/11 07:35:34;;;;;;;36.97;18.47;;;;;;;;;;4925958;29;20434;-84
2024/01/11 07:38:32;;;;;;;35.50;17.80;;;;;;;;;;4956094;28;20435;-84
2024/01/11 07:40:58;;;;;;;32.90;15.23;;;;;;;;;;4923925;28;20446;-83
2024/01/11 07:43:33;;;;;;;30.50;15.77;;;;;;;;;;4952075;28;20512;-85
2024/01/11 07:46:00;;;;;;;28.10;14.50;;;;;;;;;;4935885;29;20773;-83
2024/01/11 07:48:26;;;;;;;36.67;15.80;;;;;;;;;;4937141;29;20418;-82
2024/01/11 07:50:53;;;;;;;33.50;15.80;;;;;;;;;;4936811;29;20485;-83
2024/01/11 07:53:19;;;;;;;28.80;14.63;;;;;;;;;;4935902;29;20436;-83
2024/01/11 07:55:48;;;;;;;35.47;15.67;;;;;;;;;;4936643;29;20450;-84
2024/01/11 07:58:17;;;;;;;38.37;16.00;;;;;;;;;;4936858;29;20453;-82
2024/01/11 08:00:43;;;;;;;35.20;14.97;;;;;;;;;;4937023;29;20433;-84
2024/01/11 08:03:09;;;;;;;29.47;15.17;;;;;;;;;;4936723;29;20425;-83
2024/01/11 08:05:35;;;;;;;31.93;15.60;;;;;;;;;;4951592;29;20430;-83
2024/01/11 08:08:03;;;;;;;30.70;14.63;;;;;;;;;;4951387;29;20452;-83
2024/01/11 08:10:32;;;;;;;33.33;13.93;;;;;;;;;;4936289;29;20828;-84
2024/01/11 08:13:31;;;;;;;35.07;15.73;;;;;;;;;;4936648;29;20495;-83
2024/01/11 08:16:18;;;;;;;40.93;19.30;;;;;;;;;;4933648;29;20432;-84
2024/01/11 08:18:45;;;;;;;28.00;13.40;;;;;;;;;;4936314;29;20414;-84
2024/01/11 08:21:11;;;;;;;27.50;12.70;;;;;;;;;;4935127;29;20420;-83
2024/01/11 08:23:44;;;;;;;34.30;11.70;;;;;;;;;;4951262;29;20450;-83
2024/01/11 08:26:09;;;;;;;41.47;16.57;;;;;;;;;;4934907;29;20425;-82
2024/01/11 08:28:36;;;;;;;33.10;14.63;;;;;;;;;;4936362;29;20749;-83
2024/01/11 08:31:08;;;;;;;32.20;14.30;;;;;;;;;;4936399;29;20481;-83
2024/01/11 08:33:36;;;;;;;24.40;12.17;;;;;;;;;;4936533;29;20773;-82
2024/01/11 08:36:03;;;;;;;28.27;12.67;;;;;;;;;;4936365;29;20413;-83
2024/01/11 08:38:29;;;;;;;29.73;11.27;;;;;;;;;;4936421;29;20417;-84
2024/01/11 08:40:55;;;;;;;27.10;11.50;;;;;;;;;;4936116;29;20490;-84
2024/01/11 08:43:21;;;;;;;27.73;12.50;;;;;;;;;;4936461;29;20418;-83
2024/01/11 08:45:47;;;;;;;24.63;11.37;;;;;;;;;;4936418;29;20437;-84
2024/01/11 08:48:15;;;;;;;29.93;13.67;;;;;;;;;;4951085;29;20428;-83
2024/01/11 08:50:41;;;;;;;31.40;13.23;;;;;;;;;;4935440;29;20473;-83
2024/01/11 08:53:07;;;;;;;28.60;11.57;;;;;;;;;;4936043;29;20442;-82
2024/01/11 08:55:33;;;;;;;33.13;14.60;;;;;;;;;;4935640;29;20908;-82
2024/01/11 08:57:59;;;;;;;28.30;14.13;;;;;;;;;;4935961;29;20468;-82
2024/01/11 09:00:27;;;;;;;31.53;13.80;;;;;;;;;;4950643;29;20414;-83
2024/01/11 09:02:52;;;;;;;31.83;14.80;;;;;;;;;;4950656;29;20448;-81
2024/01/11 09:05:18;;;;;;;27.33;12.30;;;;;;;;;;4935884;29;20749;-81
2024/01/11 09:07:44;;;;;;;33.50;15.60;;;;;;;;;;4934703;29;20413;-82
2024/01/11 09:10:13;;;;;;;33.80;13.60;;;;;;;;;;4935864;29;20475;-83
2024/01/11 09:12:39;;;;;;;26.27;11.90;;;;;;;;;;4935441;29;20499;-84
2024/01/11 09:15:06;;;;;;;24.97;12.43;;;;;;;;;;4935743;29;20447;-83
2024/01/11 09:17:32;;;;;;;28.67;11.57;;;;;;;;;;4935518;29;20469;-82
2024/01/11 09:19:58;;;;;;;25.87;11.23;;;;;;;;;;4935816;29;20846;-82
2024/01/11 09:22:24;;;;;;;31.97;14.17;;;;;;;;;;4935728;29;20407;-81
2024/01/11 09:24:50;;;;;;;38.97;16.40;;;;;;;;;;4935701;29;20424;-83
2024/01/11 09:27:16;;;;;;;32.00;13.27;;;;;;;;;;4935499;29;20407;-82
2024/01/11 09:29:45;;;;;;;32.33;14.17;;;;;;;;;;4933985;29;20433;-83
2024/01/11 09:32:11;;;;;;;26.20;11.23;;;;;;;;;;4935518;29;20793;-81
2024/01/11 09:34:37;;;;;;;31.37;13.90;;;;;;;;;;4935520;29;20471;-82
2024/01/11 09:37:03;;;;;;;26.97;12.97;;;;;;;;;;4935557;29;20422;-82
2024/01/11 09:39:33;;;;;;;27.50;10.60;;;;;;;;;;4935515;29;20938;-83
2024/01/11 09:42:02;;;;;;;31.60;13.37;;;;;;;;;;4935125;29;20503;-84
2024/01/11 09:44:28;;;;;;;28.07;10.70;;;;;;;;;;4935538;29;20460;-83
2024/01/11 09:46:54;;;;;;;24.47;10.87;;;;;;;;;;4935527;29;20440;-84
2024/01/11 09:49:22;;;;;;;23.50;11.90;;;;;;;;;;4935349;29;20465;-83
2024/01/11 09:51:49;;;;;;;27.10;11.53;;;;;;;;;;4935402;29;20473;-84
2024/01/11 09:54:15;;;;;;;25.40;11.20;;;;;;;;;;4935467;29;20460;-86
2024/01/11 09:56:41;;;;;;;24.23;12.40;;;;;;;;;;4935072;29;20429;-81
2024/01/11 09:59:09;;;;;;;32.30;12.27;;;;;;;;;;4935551;29;20943;-81
2024/01/11 10:01:35;;;;;;;20.17;10.40;;;;;;;;;;4936561;29;20981;-80
2024/01/11 10:04:02;;;;;;;26.33;12.50;;;;;;;;;;4939015;29;20417;-79
2024/01/11 10:06:28;;;;;;;26.27;11.43;;;;;;;;;;4939011;29;20420;-81
2024/01/11 10:08:54;;;;;;;27.57;13.53;;;;;;;;;;4937710;29;20422;-81
2024/01/11 10:11:20;;;;;;;28.27;12.60;;;;;;;;;;4937124;29;20483;-81
2024/01/11 10:13:46;;;;;;;25.50;10.40;;;;;;;;;;4938850;29;20416;-81
2024/01/11 10:16:15;;;;;;;20.53;8.90;;;;;;;;;;4937583;29;20435;-81
2024/01/11 10:18:42;;;;;;;21.60;10.10;;;;;;;;;;4938804;29;20422;-83
2024/01/11 10:21:09;;;;;;;24.30;10.40;;;;;;;;;;4938759;29;20419;-81
2024/01/11 10:23:39;;;;;;;20.00;10.33;;;;;;;;;;4937458;29;20427;-77
2024/01/11 10:26:06;;;;;;;27.57;12.83;;;;;;;;;;4937102;29;20424;-78
2024/01/11 10:28:32;;;;;;;33.80;14.20;;;;;;;;;;4938586;29;20418;-81
2024/01/11 10:30:58;;;;;;;35.60;14.87;;;;;;;;;;4938011;29;20475;-78
2024/01/11 10:33:25;;;;;;;36.77;13.37;;;;;;;;;;4937251;29;20440;-78
2024/01/11 10:35:51;;;;;;;29.10;11.90;;;;;;;;;;4938349;29;20522;-78
2024/01/11 10:38:17;;;;;;;24.10;10.90;;;;;;;;;;4937852;29;20431;-78
2024/01/11 10:40:44;;;;;;;20.03;8.73;;;;;;;;;;4937009;29;20794;-81
2024/01/11 10:43:15;;;;;;;22.30;9.20;;;;;;;;;;4936810;29;20861;-78
2024/01/11 10:45:41;;;;;;;22.77;9.20;;;;;;;;;;4938449;29;20426;-79
2024/01/11 10:48:14;;;;;;;18.33;7.90;;;;;;;;;;4921265;29;20479;-80
2024/01/11 10:50:42;;;;;;;15.00;6.70;;;;;;;;;;4937071;29;20483;-79
2024/01/11 10:53:27;;;;;;;19.47;8.90;;;;;;;;;;4936282;28;20428;-79
2024/01/11 10:55:58;;;;;;;23.90;9.57;;;;;;;;;;4937798;29;20419;-79
2024/01/11 10:58:25;;;;;;;18.73;10.00;;;;;;;;;;4938124;29;20897;-81
2024/01/11 11:00:54;;;;;;;23.10;9.97;;;;;;;;;;4937945;29;20909;-79
2024/01/11 11:03:20;;;;;;;19.27;10.03;;;;;;;;;;4937850;29;20449;-81
2024/01/11 11:05:48;;;;;;;19.70;9.50;;;;;;;;;;4936746;29;20426;-79
2024/01/11 11:08:15;;;;;;;20.83;12.30;;;;;;;;;;4938013;29;20440;-79
2024/01/11 11:10:42;;;;;;;24.97;11.50;;;;;;;;;;4936149;29;20956;-77
2024/01/11 11:13:09;;;;;;;22.57;11.93;;;;;;;;;;4936003;29;20440;-82
2024/01/11 11:15:37;;;;;;;25.23;11.57;;;;;;;;;;4937688;29;20412;-80
2024/01/11 11:18:05;;;;;;;22.83;14.37;;;;;;;;;;4935178;28;20839;-78
2024/01/11 11:20:32;;;;;;;28.73;13.33;;;;;;;;;;4903076;29;20429;-81
2024/01/11 11:23:09;;;;;;;30.33;14.70;;;;;;;;;;4937552;29;20410;-79
2024/01/11 11:25:38;;;;;;;29.43;12.90;;;;;;;;;;4937234;29;20445;-78
2024/01/11 11:28:04;;;;;;;28.70;13.40;;;;;;;;;;4952149;29;20426;-79
2024/01/11 11:30:31;;;;;;;31.90;15.40;;;;;;;;;;4937394;29;20549;-80
2024/01/11 11:32:57;;;;;;;36.60;17.07;;;;;;;;;;4936540;29;20410;-79
2024/01/11 11:35:26;;;;;;;38.93;16.40;;;;;;;;;;4936277;29;20439;-79
2024/01/11 11:37:58;;;;;;;30.20;14.70;;;;;;;;;;4937285;29;20460;-80
2024/01/11 11:40:37;;;;;;;38.83;17.23;;;;;;;;;;4936876;29;20421;-80
2024/01/11 11:43:04;;;;;;;36.83;15.87;;;;;;;;;;4937153;29;20421;-78
2024/01/11 11:45:31;;;;;;;38.53;16.70;;;;;;;;;;4936185;29;20521;-78
2024/01/11 11:47:57;;;;;;;41.77;18.77;;;;;;;;;;4937045;29;20445;-79
2024/01/11 11:50:23;;;;;;;41.77;16.43;;;;;;;;;;4936681;29;20519;-78
2024/01/11 11:52:54;;;;;;;36.60;16.67;;;;;;;;;;4937003;29;20478;-79
2024/01/11 11:55:21;;;;;;;37.17;19.07;;;;;;;;;;4936529;29;20409;-79
2024/01/11 11:57:48;;;;;;;40.07;17.77;;;;;;;;;;4936834;29;20420;-79
2024/01/11 12:00:15;;;;;;;34.33;17.83;;;;;;;;;;4936904;29;20742;-80
2024/01/11 12:02:41;;;;;;;44.30;19.27;;;;;;;;;;4936860;29;20502;-79
2024/01/11 12:05:08;;;;;;;40.57;18.53;;;;;;;;;;4936775;29;20410;-82
2024/01/11 12:07:34;;;;;;;40.50;20.67;;;;;;;;;;4935839;29;20439;-79
2024/01/11 12:10:00;;;;;;;45.77;20.37;;;;;;;;;;4931856;29;20801;-82
2024/01/11 12:12:26;;;;;;;37.07;18.70;;;;;;;;;;4932278;29;20440;-81
2024/01/11 12:14:53;;;;;;;45.73;21.63;;;;;;;;;;4931244;29;20436;-78
2024/01/11 12:17:19;;;;;;;40.30;20.50;;;;;;;;;;4935057;29;20485;-81
2024/01/11 12:19:45;;;;;;;40.03;20.17;;;;;;;;;;4896556;28;21082;-81
2024/01/11 12:22:11;;;;;;;48.50;20.70;;;;;;;;;;4935779;29;20473;-82
2024/01/11 12:24:37;;;;;;;37.10;16.30;;;;;;;;;;4935650;29;20470;-78
2024/01/11 12:27:06;;;;;;;41.00;20.63;;;;;;;;;;4936075;29;20464;-79
2024/01/11 12:29:32;;;;;;;41.73;20.93;;;;;;;;;;4936562;29;20493;-80
2024/01/11 12:32:02;;;;;;;40.17;17.80;;;;;;;;;;4935980;29;20468;-82
2024/01/11 12:34:28;;;;;;;42.40;19.80;;;;;;;;;;4950573;28;20432;-82
2024/01/11 12:36:55;;;;;;;39.63;19.60;;;;;;;;;;4936092;29;20443;-80
2024/01/11 12:39:22;;;;;;;42.37;18.67;;;;;;;;;;4936148;29;20424;-81
2024/01/11 12:41:49;;;;;;;44.80;21.00;;;;;;;;;;4935841;29;20424;-81
2024/01/11 12:44:15;;;;;;;45.83;20.03;;;;;;;;;;4934430;29;20425;-79
2024/01/11 12:46:40;;;;;;;41.67;19.63;;;;;;;;;;4925098;28;21027;-82
2024/01/11 12:49:10;;;;;;;45.87;20.70;;;;;;;;;;4936039;29;20434;-85
2024/01/11 12:51:36;;;;;;;45.67;19.47;;;;;;;;;;4936415;29;20705;-88
2024/01/11 12:54:04;;;;;;;43.60;20.27;;;;;;;;;;4936655;29;20444;-90
2024/01/11 12:56:30;;;;;;;38.80;19.77;;;;;;;;;;4935826;29;20406;-81
2024/01/11 12:59:09;;;;;;;45.63;18.03;;;;;;;;;;4935900;29;20421;-87
2024/01/11 13:01:35;;;;;;;36.50;19.20;;;;;;;;;;4935838;29;20421;-88
2024/01/11 13:04:02;;;;;;;45.33;19.40;;;;;;;;;;4936020;29;20417;-87
2024/01/11 13:06:28;;;;;;;39.73;18.20;;;;;;;;;;4936086;29;20424;-86
2024/01/11 13:08:55;;;;;;;44.57;19.57;;;;;;;;;;4950772;29;20525;-86
2024/01/11 13:11:24;;;;;;;32.77;16.80;;;;;;;;;;4951577;29;20499;-80
2024/01/11 13:13:50;;;;;;;45.10;19.00;;;;;;;;;;4964161;28;20433;-83
2024/01/11 13:16:18;;;;;;;45.20;21.27;;;;;;;;;;4945719;29;20424;-84
2024/01/11 13:18:44;;;;;;;33.00;17.43;;;;;;;;;;4959332;28;20422;-82
2024/01/11 13:21:12;;;;;;;41.13;18.50;;;;;;;;;;4904868;28;20461;-81
2024/01/11 13:23:38;;;;;;;39.23;19.17;;;;;;;;;;4957628;28;21062;-82
2024/01/11 13:26:04;;;;;;;40.57;20.40;;;;;;;;;;4952485;29;20456;-85
2024/01/11 13:28:30;;;;;;;38.40;20.00;;;;;;;;;;4954781;29;20413;-85
2024/01/11 13:30:56;;;;;;;36.53;19.17;;;;;;;;;;4957201;28;20977;-84
2024/01/11 13:33:23;;;;;;;40.20;18.90;;;;;;;;;;4939999;29;20557;-84
2024/01/11 13:35:49;;;;;;;35.73;18.60;;;;;;;;;;4936111;29;20933;-84
2024/01/11 13:38:16;;;;;;;32.33;16.80;;;;;;;;;;4938182;29;21073;-85
2024/01/11 13:40:43;;;;;;;41.90;18.67;;;;;;;;;;4937131;29;20782;-84
2024/01/11 13:43:09;;;;;;;40.00;19.03;;;;;;;;;;4939001;29;20445;-86
2024/01/11 13:45:38;;;;;;;42.13;17.70;;;;;;;;;;4937819;29;20457;-85
2024/01/11 13:48:05;;;;;;;37.40;18.17;;;;;;;;;;4937859;29;20850;-84
2024/01/11 13:50:32;;;;;;;35.70;17.70;;;;;;;;;;4938888;29;20478;-87
2024/01/11 13:52:58;;;;;;;40.10;17.83;;;;;;;;;;4938028;29;20444;-87
2024/01/11 13:55:24;;;;;;;36.90;16.77;;;;;;;;;;4937809;29;20427;-86
2024/01/11 13:57:50;;;;;;;34.17;16.13;;;;;;;;;;4938933;29;20436;-87
2024/01/11 14:00:18;;;;;;;33.53;18.30;;;;;;;;;;4937614;29;20841;-86
2024/01/11 14:02:44;;;;;;;30.00;16.97;;;;;;;;;;4938485;29;20430;-86
2024/01/11 14:05:12;;;;;;;38.10;18.40;;;;;;;;;;4938120;29;20853;-86
2024/01/11 14:07:39;;;;;;;32.70;17.07;;;;;;;;;;4938152;29;20449;-87
2024/01/11 14:10:05;;;;;;;32.90;16.83;;;;;;;;;;4938094;29;20777;-84
2024/01/11 14:12:32;;;;;;;35.00;18.23;;;;;;;;;;4938730;29;20429;-87
2024/01/11 14:14:58;;;;;;;33.67;15.00;;;;;;;;;;4937856;29;20783;-83
2024/01/11 14:17:24;;;;;;;34.63;18.37;;;;;;;;;;4938351;29;20783;-83